createdAt,value
2023-02-22T05:02:00.874Z,80.73
2023-02-22T05:04:27.570Z,81.12
2023-02-22T05:06:55.072Z,80.30
2023-02-22T05:09:24.694Z,80.28
2023-02-22T05:11:51.276Z,80.12
2023-02-22T05:14:17.797Z,80.22
2023-02-22T05:16:44.354Z,79.40
2023-02-22T05:19:10.855Z,79.50
2023-02-22T05:21:37.350Z,79.45
2023-02-22T05:24:04.031Z,79.42
2023-02-22T05:26:30.602Z,79.70
2023-02-22T05:28:57.149Z,79.39
2023-02-22T05:33:49.367Z,78.82
2023-02-22T05:36:16.761Z,79.17
2023-02-22T05:38:44.879Z,79.21
2023-02-22T05:41:12.799Z,79.23
2023-02-22T05:43:40.434Z,78.77
2023-02-22T05:46:07.324Z,79.20
2023-02-22T05:48:34.060Z,79.26
2023-02-22T05:51:00.625Z,81.08
2023-02-22T05:53:27.726Z,80.16
2023-02-22T05:55:54.587Z,80.51
2023-02-22T05:58:21.451Z,79.95
2023-02-22T06:00:47.978Z,80.01
2023-02-22T06:03:14.572Z,80.21
2023-02-22T06:05:41.983Z,79.94
2023-02-22T06:08:08.868Z,79.13
2023-02-22T06:10:35.584Z,79.32
2023-02-22T06:13:04.022Z,79.79
2023-02-22T06:15:31.345Z,80.01
2023-02-22T06:17:59.049Z,79.58
2023-02-22T06:20:27.956Z,79.00
2023-02-22T06:22:57.631Z,80.09
2023-02-22T06:25:27.944Z,79.17
2023-02-22T06:27:54.537Z,79.20
2023-02-22T06:30:23.717Z,79.37
2023-02-22T06:32:50.363Z,80.02
2023-02-22T06:35:17.150Z,80.19
2023-02-22T06:37:43.696Z,79.18
2023-02-22T06:47:26.929Z,78.37
2023-02-22T06:51:24.070Z,80.25
2023-02-22T06:53:54.665Z,80.44
2023-02-22T06:56:21.476Z,79.41
2023-02-22T06:58:49.365Z,78.72
2023-02-22T11:32:49.627Z,65.74
2023-02-22T11:35:39.353Z,64.08
2023-02-22T11:38:10.091Z,65.11
2023-02-22T11:40:36.665Z,63.54
2023-02-22T11:43:17.915Z,63.41
2023-02-22T11:46:12.072Z,63.06
2023-02-22T11:48:44.425Z,62.73
2023-02-22T11:51:30.998Z,63.28
2023-02-22T11:54:28.861Z,62.67
2023-02-22T11:57:16.386Z,62.67
2023-02-22T12:00:50.951Z,64.39
2023-02-22T12:03:28.634Z,63.27
2023-02-22T12:06:19.651Z,62.50
2023-02-22T12:09:00.578Z,63.28
2023-02-22T12:12:06.073Z,63.50
2023-02-22T12:14:46.601Z,62.69
2023-02-22T12:17:54.271Z,61.81
2023-02-22T12:20:32.158Z,62.64
2023-02-22T12:23:13.931Z,62.52
2023-02-22T12:26:02.028Z,63.20
2023-02-22T12:28:44.856Z,63.08
2023-02-22T12:31:34.460Z,63.06
2023-02-22T12:34:07.656Z,64.09
2023-02-22T12:36:41.878Z,62.82
2023-02-22T12:39:25.247Z,62.40
2023-02-22T12:41:55.934Z,62.37
2023-02-22T12:44:35.830Z,62.73
2023-02-22T12:47:05.512Z,62.30
2023-02-22T12:50:03.165Z,62.72
2023-02-22T12:53:05.706Z,62.40
2023-02-22T12:55:45.735Z,62.36
2023-02-22T12:58:25.871Z,62.56
2023-02-22T13:01:01.888Z,61.69
2023-02-22T13:03:38.468Z,60.68
2023-02-22T13:06:33.111Z,62.99
2023-02-22T13:09:26.658Z,61.62
2023-02-22T13:12:05.831Z,61.51
2023-02-22T13:14:55.614Z,62.24
2023-02-22T13:17:37.557Z,61.90
2023-02-22T13:20:18.378Z,62.24
2023-02-22T13:22:52.740Z,61.92
2023-02-22T13:25:22.222Z,63.32
2023-02-22T13:27:52.434Z,63.36
2023-02-22T13:30:42.000Z,63.29
2023-02-22T13:33:40.954Z,62.89
2023-02-22T13:36:14.842Z,62.67
2023-02-22T13:39:19.160Z,62.41
2023-02-22T13:42:14.114Z,61.52
2023-02-22T13:44:53.011Z,61.23
2023-02-22T13:47:41.409Z,62.16
2023-02-22T13:50:33.530Z,61.52
2023-02-22T13:53:05.374Z,60.36
2023-02-22T13:55:35.339Z,61.70
2023-02-22T13:58:08.097Z,61.39
2023-02-22T14:00:51.181Z,60.54
2023-02-22T14:03:41.433Z,60.20
2023-02-22T14:06:10.482Z,60.79
2023-02-22T14:08:37.306Z,60.20
2023-02-22T14:11:06.602Z,61.06
2023-02-22T14:14:00.637Z,60.70
2023-02-22T14:16:34.004Z,60.01
2023-02-22T14:19:23.583Z,61.33
2023-02-22T14:22:25.676Z,60.49
2023-02-22T14:24:52.292Z,60.70
2023-02-22T14:27:18.853Z,60.87
2023-02-22T14:30:00.342Z,59.76
2023-02-22T14:32:32.648Z,58.65
2023-02-22T14:35:09.588Z,58.95
2023-02-22T14:37:42.698Z,59.02
2023-02-22T14:40:31.576Z,59.53
2023-02-22T14:43:06.180Z,59.47
2023-02-22T14:45:36.380Z,59.68
2023-02-22T14:48:15.557Z,60.53
2023-02-22T14:50:48.743Z,59.66
2023-02-22T14:53:23.103Z,60.20
2023-02-22T14:55:56.582Z,60.41
2023-02-22T14:58:29.334Z,60.18
2023-02-22T15:00:59.194Z,60.27
2023-02-22T15:03:37.389Z,59.15
2023-02-22T15:06:25.753Z,59.94
2023-02-22T15:09:29.622Z,59.95
2023-02-22T15:12:03.312Z,61.64
2023-02-22T15:14:33.047Z,63.71
2023-02-22T15:17:03.354Z,64.13
2023-02-22T15:19:37.231Z,65.22
2023-02-22T15:22:03.830Z,64.65
2023-02-22T15:24:34.496Z,66.22
2023-02-22T15:27:12.637Z,66.87
2023-02-22T15:29:44.417Z,67.04
2023-02-22T15:32:29.238Z,67.04
2023-02-22T15:35:05.478Z,67.08
2023-02-22T15:37:32.536Z,67.48
2023-02-22T15:40:14.324Z,68.19
2023-02-22T15:42:58.264Z,68.63
2023-02-22T15:45:26.158Z,68.66
2023-02-22T15:47:58.558Z,69.59
2023-02-22T15:50:29.519Z,70.01
2023-02-22T15:53:08.461Z,70.16
2023-02-22T15:55:55.618Z,70.01
2023-02-22T15:58:24.416Z,70.87
2023-02-22T16:01:05.336Z,70.77
2023-02-22T16:03:56.671Z,71.72
2023-02-22T16:06:54.517Z,72.79
2023-02-22T16:09:25.946Z,73.87
2023-02-22T16:12:09.672Z,75.00
2023-02-22T16:14:36.171Z,75.67
2023-02-22T16:17:30.935Z,75.08
2023-02-22T16:20:21.858Z,75.34
2023-02-22T16:22:49.805Z,75.26
2023-02-22T16:25:19.545Z,75.37
2023-02-22T16:27:47.734Z,74.94
2023-02-22T16:30:24.051Z,74.61
2023-02-22T16:32:53.420Z,74.61
2023-02-22T16:35:20.102Z,73.52
2023-02-22T16:38:01.064Z,73.62
2023-02-22T16:40:35.281Z,73.43
2023-02-22T16:43:05.954Z,73.76
2023-02-22T16:45:32.819Z,72.90
2023-02-22T16:48:00.133Z,72.88
2023-02-22T16:50:26.655Z,72.37
2023-02-22T16:52:58.519Z,72.71
2023-02-22T16:55:25.573Z,73.36
2023-02-22T16:57:55.944Z,73.23
2023-02-22T17:00:31.012Z,73.28
2023-02-22T17:03:03.890Z,73.35
2023-02-22T17:05:32.239Z,73.54
2023-02-22T17:07:58.831Z,73.60
2023-02-22T17:10:26.127Z,74.27
2023-02-22T17:12:56.309Z,74.79
2023-02-22T17:15:28.249Z,74.88
2023-02-22T17:17:56.471Z,74.40
2023-02-22T17:20:32.692Z,74.05
2023-02-22T17:23:01.377Z,74.08
2023-02-22T17:25:36.613Z,74.73
2023-02-22T17:28:03.766Z,74.25
2023-02-22T17:30:32.732Z,74.48
2023-02-22T17:33:03.759Z,74.10
2023-02-22T17:35:39.214Z,74.20
2023-02-22T17:38:06.388Z,74.65
2023-02-22T17:40:35.138Z,74.05
2023-02-22T17:43:02.423Z,74.34
2023-02-22T17:45:29.709Z,73.78
2023-02-22T17:47:58.969Z,74.00
2023-02-22T17:50:26.183Z,74.45
2023-02-22T17:52:52.904Z,74.76
2023-02-22T17:55:20.941Z,74.18
2023-02-22T17:57:52.086Z,73.74
2023-02-22T18:00:32.868Z,73.50
2023-02-22T18:03:02.543Z,73.61
2023-02-22T18:05:29.960Z,73.37
2023-02-22T18:07:56.544Z,73.73
2023-02-22T18:10:23.257Z,73.59
2023-02-22T18:12:49.846Z,73.57
2023-02-22T18:15:17.545Z,73.37
2023-02-22T18:17:45.998Z,73.54
2023-02-22T18:20:14.865Z,74.13
2023-02-22T18:22:43.264Z,73.92
2023-02-22T18:25:11.554Z,73.63
2023-02-22T18:27:38.177Z,73.70
2023-02-22T18:30:08.583Z,73.23
2023-02-22T18:32:35.118Z,74.15
2023-02-22T18:35:01.981Z,74.00
2023-02-22T18:37:28.557Z,73.59
2023-02-22T18:39:55.731Z,73.44
2023-02-22T18:42:23.916Z,73.74
2023-02-22T18:44:51.120Z,73.85
2023-02-22T18:47:18.592Z,73.43
2023-02-22T18:49:45.473Z,73.41
2023-02-22T18:52:12.013Z,73.28
2023-02-22T18:54:40.114Z,73.64
2023-02-22T18:57:07.219Z,73.56
2023-02-22T18:59:33.800Z,73.92
2023-02-22T19:02:01.714Z,73.56
2023-02-22T19:04:28.335Z,73.70
2023-02-22T19:06:55.119Z,73.75
2023-02-22T19:09:21.728Z,73.61
2023-02-22T19:11:50.768Z,73.71
2023-02-22T19:14:19.370Z,74.11
2023-02-22T19:16:48.806Z,74.40
2023-02-22T19:19:20.791Z,74.55
2023-02-22T19:21:49.586Z,74.10
2023-02-22T19:24:18.839Z,74.61
2023-02-22T19:26:53.580Z,74.70
2023-02-22T19:29:23.783Z,75.18
2023-02-22T19:31:54.043Z,75.07
2023-02-22T19:34:22.029Z,75.74
2023-02-22T19:36:48.878Z,75.56
2023-02-22T19:39:17.262Z,75.35
2023-02-22T19:41:43.801Z,75.72
2023-02-22T19:44:10.539Z,75.85
2023-02-22T19:46:37.815Z,75.04
2023-02-22T19:49:05.617Z,75.05
2023-02-22T19:51:36.436Z,74.87
2023-02-22T19:54:05.991Z,75.08
2023-02-22T19:56:35.315Z,74.75
2023-02-22T19:59:12.879Z,75.09
2023-02-22T20:01:43.974Z,75.15
2023-02-22T20:04:17.645Z,75.40
2023-02-22T20:06:45.684Z,75.45
2023-02-22T20:09:16.686Z,75.42
2023-02-22T20:11:44.165Z,75.37
2023-02-22T20:14:17.250Z,75.22
2023-02-22T20:16:43.883Z,75.32
2023-02-22T20:19:10.550Z,75.19
2023-02-22T20:21:37.320Z,75.20
2023-02-22T20:24:11.600Z,76.37
2023-02-22T20:26:39.217Z,75.71
2023-02-22T20:29:07.619Z,76.04
2023-02-22T20:31:34.332Z,76.23
2023-02-22T20:34:01.888Z,76.17
2023-02-22T20:36:30.003Z,75.97
2023-02-22T20:38:58.969Z,75.83
2023-02-22T20:41:34.781Z,76.24
2023-02-22T20:44:03.059Z,76.05
2023-02-22T20:46:36.066Z,76.96
2023-02-22T20:49:05.119Z,77.12
2023-02-22T20:51:31.612Z,77.41
2023-02-22T20:54:00.001Z,76.89
2023-02-22T20:56:29.426Z,76.73
2023-02-22T20:58:57.591Z,76.96
2023-02-22T21:01:24.471Z,76.51
2023-02-22T21:06:25.910Z,76.51
2023-02-22T21:08:54.539Z,77.23
2023-02-22T21:11:23.100Z,76.80
2023-02-22T21:13:50.734Z,76.75
2023-02-22T21:16:37.740Z,76.39
2023-02-22T21:19:06.753Z,76.21
2023-02-22T21:21:34.204Z,76.28
2023-02-22T21:24:01.931Z,75.90
2023-02-22T21:26:34.436Z,76.06
2023-02-22T21:29:04.727Z,76.00
2023-02-22T21:31:33.122Z,76.36
2023-02-22T21:34:00.349Z,76.60
2023-02-22T21:36:27.383Z,76.39
2023-02-22T21:38:59.853Z,76.29
2023-02-22T21:41:30.332Z,76.38
2023-02-22T21:43:58.981Z,75.88
2023-02-22T21:46:27.670Z,75.92
2023-02-22T21:48:57.933Z,76.35
2023-02-22T21:51:27.659Z,76.71
2023-02-22T21:53:54.798Z,76.76
2023-02-22T21:56:27.652Z,76.08
2023-02-22T21:59:00.290Z,76.60
